Terminal Aerodrome Forecast
Issued by NWS

Home | Current Version | Previous Version | Text Only | Print | Product List | Glossary On
Versions: 1 2 3 4 5 6 7 8 9 10 11 12 13 14 15 16 17 18 19 20 21 22 23 24 25 26 27 28 29 30 31 32 33 34 35 36 37 38 39 40 41 42 43 44 45 46 47 48 49 50
804
FTUS45 KBOU 060520
TAFBJC
TAF
KBJC 060520Z 0606/0706 32010KT P6SM SCT080 BKN100
     FM060800 01006KT P6SM SCT060 BKN100
     FM061200 09006KT P6SM BKN050 BKN100
     FM061800 11012KT P6SM SCT050 BKN100
     FM062100 10012KT P6SM SCT025 OVC050 PROB30 0621/0624 2SM -SN BR
      BKN020
     FM070000 07010KT 2SM -SN BR SCT005 OVC010
     FM070200 01008KT 1/2SM SN FZFG VV003=

USA.gov is the U.S. government's official web portal to all federal, state and local government web resources and services.